Meteo Giornale » Osservazioni meteo Italia » Decimomannu

ore: 11:55 - Osservazioni Meteo Decimomannu
Lat. 39° 21' N Lon. 8° 58' E Alt. 29 metri s.l.m.

sereno Europe/Rome

12 °C

Sereno

Temp. 24 Ore

6 °C

15 °C

Nord

3.7 Km/h

Dew point 9 °C

Umidità 81 %

Visibilità  10 Km

Il sole sorge alle ore 07:37

Il sole tramonta alle ore 17:04

Data e Ora Cielo e Fenomeni T °C DP °C Um. % Pres. hPa Vis. km Vento km/h
Oggi h: 11:55 sereno Sereno 12 9 81 1027 10 N 3.7
Oggi h: 10:55 sereno Sereno 10 8 87 1027 10 N 5.5
Oggi h: 09:55 sereno Sereno 8 6 87 1027 10 N 5.5
Oggi h: 08:55 sereno Sereno 7 5 87 1027 10 O 7.4
Oggi h: 07:55 sereno Sereno 6 5 93 1026 10 N/NE 9.3
Oggi h: 06:55 poco_nuvoloso Poco Nuvoloso 6 5 93 1026 10 N 5.5
Oggi h: 05:55 sereno Sereno 6 4 86 1025 10 N 3.7
Oggi h: 04:55 sereno Sereno 8 7 93 1025 10 N 9.3
Oggi h: 03:55 sereno Sereno 9 7 87 1025 10 N 14.8
Oggi h: 02:55 poco_nuvoloso Poco Nuvoloso 11 9 87 1025 10 N 9.3
Oggi h: 01:55 poco_nuvoloso Poco Nuvoloso 11 9 87 1025 10 NO 16.7
Oggi h: 00:55 poco_nuvoloso Poco Nuvoloso 11 9 87 1024 10 O/NO 25.9
Ieri h: 23:55 poco_nuvoloso Poco Nuvoloso 11 9 87 1024 10 O/NO 22.2
Ieri h: 22:55 poco_nuvoloso Poco Nuvoloso 11 10 93 1024 10 N/NO 18.5
Ieri h: 21:55 nuvoloso Nuvoloso 12 11 93 1023 10 O/NO 11.1
Ieri h: 20:55 nuvoloso Nuvoloso 13 11 87 1023 10 N/NO 22.2
Ieri h: 19:55 nuvoloso Nuvoloso 14 13 93 1023 10 N/NO 25.9
Ieri h: 17:55 nuvoloso Nuvoloso 14 11 82 1021 10 O/NO 24
Ieri h: 16:55 nuvoloso Nuvoloso 14 12 87 1020 10 O/NO 22.2
Ieri h: 14:55 nuvoloso Nuvoloso 15 11 76 1019 10 O/NO 37
Ieri h: 13:55 nuvoloso Nuvoloso 15 11 76 1018 10 O/NO 40.7
Ieri h: 12:55 nuvoloso Nuvoloso 14 12 87 1018 10 O/NO 44.4
Ieri h: 11:55 nuvoloso Nuvoloso 15 12 82 1018 10 O/NO 42.6